Time;durP1;ratioP1;P1;durP2;ratioP2;P2;SDS_P1;SDS_P2;PMS_P1;PMS_P2;Temp;Humidity;BMP_temperature;BMP_pressure;BME280_temperature;BME280_humidity;BME280_pressure;Samples;Min_cycle;Max_cycle;Signal;HPM_P1;HPM_P2
2021/05/07 00:00:54;;;;;;;9.37;6.87;;;;;;;;;;5052130;28;20259;-75
2021/05/07 00:03:21;;;;;;;8.07;6.17;;;;;;;;;;5052309;28;20238;-75
2021/05/07 00:05:54;;;;;;;8.23;5.60;;;;;;;;;;5051759;28;20298;-75
2021/05/07 00:08:21;;;;;;;9.53;6.30;;;;;;;;;;5054319;28;20655;-75
2021/05/07 00:10:48;;;;;;;7.90;5.87;;;;;;;;;;5076100;28;20301;-75
2021/05/07 00:13:15;;;;;;;9.00;6.10;;;;;;;;;;5073935;28;20209;-75
2021/05/07 00:15:42;;;;;;;9.43;6.20;;;;;;;;;;5067685;28;20201;-76
2021/05/07 00:18:08;;;;;;;8.43;6.40;;;;;;;;;;5052381;28;20293;-75
2021/05/07 00:20:35;;;;;;;7.50;5.73;;;;;;;;;;5051371;28;20332;-75
2021/05/07 00:23:02;;;;;;;11.53;6.43;;;;;;;;;;5062575;28;20294;-76
2021/05/07 00:25:30;;;;;;;7.77;5.93;;;;;;;;;;5075263;28;20246;-76
2021/05/07 00:28:02;;;;;;;7.40;5.80;;;;;;;;;;5070959;28;20202;-76
2021/05/07 00:30:29;;;;;;;8.70;6.03;;;;;;;;;;5071101;28;20759;-76
2021/05/07 00:32:56;;;;;;;8.93;5.80;;;;;;;;;;5070873;28;20204;-76
2021/05/07 00:35:22;;;;;;;9.10;6.80;;;;;;;;;;5070733;28;20216;-76
2021/05/07 00:37:49;;;;;;;11.10;6.90;;;;;;;;;;5071242;28;20292;-76
2021/05/07 00:40:16;;;;;;;11.50;6.97;;;;;;;;;;5063464;28;20724;-76
2021/05/07 00:42:44;;;;;;;9.77;7.03;;;;;;;;;;5057958;28;20236;-76
2021/05/07 00:45:12;;;;;;;9.63;6.83;;;;;;;;;;5059624;28;20241;-76
2021/05/07 00:47:39;;;;;;;8.90;6.43;;;;;;;;;;5088359;28;20247;-76
2021/05/07 00:50:07;;;;;;;9.43;6.90;;;;;;;;;;5082990;28;20208;-76
2021/05/07 00:52:37;;;;;;;10.10;7.03;;;;;;;;;;5071907;28;20718;-76
2021/05/07 00:55:04;;;;;;;9.33;6.70;;;;;;;;;;5070286;28;20343;-75
2021/05/07 00:57:31;;;;;;;10.63;6.77;;;;;;;;;;5067577;28;20258;-76
2021/05/07 00:59:59;;;;;;;10.13;6.70;;;;;;;;;;5068437;28;20260;-76
2021/05/07 01:02:26;;;;;;;9.67;6.67;;;;;;;;;;5053336;28;20255;-76
2021/05/07 01:04:52;;;;;;;8.63;6.27;;;;;;;;;;5072868;28;20208;-75
2021/05/07 01:07:19;;;;;;;10.17;6.30;;;;;;;;;;5056715;28;20283;-76
2021/05/07 01:09:49;;;;;;;8.50;6.37;;;;;;;;;;5050499;28;20241;-76
2021/05/07 01:12:16;;;;;;;7.43;6.20;;;;;;;;;;5051075;28;20202;-75
2021/05/07 01:14:43;;;;;;;10.07;6.27;;;;;;;;;;5051470;28;20290;-75
2021/05/07 01:17:11;;;;;;;10.37;6.20;;;;;;;;;;5065414;28;20235;-75
2021/05/07 01:19:37;;;;;;;8.80;5.93;;;;;;;;;;5070157;28;20287;-75
2021/05/07 01:22:05;;;;;;;10.50;6.87;;;;;;;;;;5070624;28;20956;-76
2021/05/07 01:24:32;;;;;;;10.50;6.43;;;;;;;;;;5071094;28;20598;-75
2021/05/07 01:26:58;;;;;;;9.57;6.20;;;;;;;;;;5069521;28;20532;-75
2021/05/07 01:29:25;;;;;;;8.57;6.00;;;;;;;;;;5056866;28;20319;-76
2021/05/07 01:31:55;;;;;;;8.20;5.93;;;;;;;;;;5053377;28;20313;-75
2021/05/07 01:34:22;;;;;;;8.90;5.60;;;;;;;;;;5071496;28;20250;-76
2021/05/07 01:36:49;;;;;;;9.00;6.03;;;;;;;;;;5070712;28;20290;-76
2021/05/07 01:39:17;;;;;;;12.20;7.47;;;;;;;;;;5070589;28;20223;-75
2021/05/07 01:41:43;;;;;;;11.70;7.90;;;;;;;;;;5057360;28;20208;-75
2021/05/07 01:44:10;;;;;;;7.93;5.53;;;;;;;;;;5050800;28;20241;-76
2021/05/07 01:46:37;;;;;;;7.40;5.20;;;;;;;;;;5057404;28;20199;-75
2021/05/07 01:49:03;;;;;;;7.57;5.67;;;;;;;;;;5070616;28;20239;-75
2021/05/07 01:51:30;;;;;;;5.97;4.83;;;;;;;;;;5069824;28;20232;-75
2021/05/07 01:53:57;;;;;;;5.63;4.73;;;;;;;;;;5069433;28;20232;-75
2021/05/07 01:56:24;;;;;;;5.03;4.37;;;;;;;;;;5088323;28;20290;-75
2021/05/07 01:58:51;;;;;;;5.43;4.33;;;;;;;;;;5068085;28;20266;-75
2021/05/07 02:01:18;;;;;;;5.87;4.50;;;;;;;;;;5070597;28;20246;-75
2021/05/07 02:03:44;;;;;;;6.00;4.73;;;;;;;;;;5070169;28;20955;-75
2021/05/07 02:06:11;;;;;;;6.17;4.77;;;;;;;;;;5077917;28;20656;-75
2021/05/07 02:08:38;;;;;;;7.07;5.00;;;;;;;;;;5076589;28;20207;-76
2021/05/07 02:11:05;;;;;;;6.30;5.10;;;;;;;;;;5054109;28;20310;-75
2021/05/07 02:13:32;;;;;;;5.80;4.60;;;;;;;;;;5066404;28;20290;-75
2021/05/07 02:15:59;;;;;;;6.73;5.10;;;;;;;;;;5073779;28;20210;-75
2021/05/07 02:18:25;;;;;;;5.43;4.50;;;;;;;;;;5073723;28;20601;-75
2021/05/07 02:20:54;;;;;;;4.60;3.87;;;;;;;;;;5064520;28;20285;-75
2021/05/07 02:23:22;;;;;;;3.90;3.50;;;;;;;;;;5053646;28;20253;-75
2021/05/07 02:25:49;;;;;;;3.87;3.43;;;;;;;;;;5066922;28;20251;-75
2021/05/07 02:28:16;;;;;;;5.27;3.77;;;;;;;;;;5060223;28;20730;-75
2021/05/07 02:30:43;;;;;;;4.10;3.40;;;;;;;;;;5065702;28;20255;-75
2021/05/07 02:33:10;;;;;;;3.50;3.20;;;;;;;;;;5069658;28;20196;-75
2021/05/07 02:35:37;;;;;;;4.90;3.60;;;;;;;;;;5057016;28;20289;-75
2021/05/07 02:38:04;;;;;;;4.67;3.40;;;;;;;;;;5053449;28;20207;-75
2021/05/07 02:40:30;;;;;;;3.93;3.50;;;;;;;;;;5056755;28;20243;-75
2021/05/07 02:42:57;;;;;;;3.70;3.23;;;;;;;;;;5073082;28;20682;-75
2021/05/07 02:45:24;;;;;;;4.23;3.43;;;;;;;;;;5085525;28;20289;-75
2021/05/07 02:47:51;;;;;;;3.80;3.40;;;;;;;;;;5093266;28;20206;-75
2021/05/07 02:50:18;;;;;;;4.60;3.70;;;;;;;;;;5092188;28;20372;-75
2021/05/07 02:52:45;;;;;;;5.20;3.60;;;;;;;;;;5055720;28;20722;-75
2021/05/07 02:55:12;;;;;;;4.30;3.73;;;;;;;;;;5073059;28;20230;-75
2021/05/07 02:57:39;;;;;;;4.50;3.57;;;;;;;;;;5073447;28;20207;-75
2021/05/07 03:00:07;;;;;;;9.10;3.40;;;;;;;;;;5072496;28;20302;-75
2021/05/07 03:02:34;;;;;;;7.23;3.73;;;;;;;;;;5055409;28;20611;-75
2021/05/07 03:05:01;;;;;;;13.27;4.13;;;;;;;;;;5068487;28;20333;-75
2021/05/07 03:07:28;;;;;;;22.37;4.07;;;;;;;;;;5053041;28;20634;-75
2021/05/07 03:09:55;;;;;;;19.97;4.33;;;;;;;;;;5057824;28;20281;-75
2021/05/07 03:12:21;;;;;;;15.20;4.10;;;;;;;;;;5073143;28;20297;-75
2021/05/07 03:14:48;;;;;;;19.97;4.60;;;;;;;;;;5072980;28;20248;-75
2021/05/07 03:17:15;;;;;;;9.97;3.63;;;;;;;;;;5072882;28;20218;-75
2021/05/07 03:19:41;;;;;;;6.40;3.83;;;;;;;;;;5072197;28;20264;-75
2021/05/07 03:22:09;;;;;;;5.20;4.20;;;;;;;;;;5076066;28;20205;-75
2021/05/07 03:24:36;;;;;;;9.37;5.00;;;;;;;;;;5093652;28;20238;-75
2021/05/07 03:27:02;;;;;;;7.50;4.77;;;;;;;;;;5077006;28;20305;-75
2021/05/07 03:29:29;;;;;;;65.00;7.70;;;;;;;;;;5073021;28;20295;-75
2021/05/07 03:31:56;;;;;;;18.90;6.43;;;;;;;;;;5055344;28;20828;-75
2021/05/07 03:34:22;;;;;;;13.50;6.43;;;;;;;;;;5061026;28;20297;-75
2021/05/07 03:36:49;;;;;;;12.97;6.73;;;;;;;;;;5089800;28;20277;-75
2021/05/07 03:39:16;;;;;;;12.10;6.50;;;;;;;;;;5086526;28;20289;-75
2021/05/07 03:41:43;;;;;;;17.93;6.90;;;;;;;;;;5072450;28;20288;-75
2021/05/07 03:44:10;;;;;;;10.83;5.77;;;;;;;;;;5072205;28;20228;-75
2021/05/07 03:46:36;;;;;;;12.40;4.83;;;;;;;;;;5072209;28;20301;-75
2021/05/07 03:49:03;;;;;;;12.20;4.30;;;;;;;;;;5069379;28;20292;-75
2021/05/07 03:51:30;;;;;;;16.03;5.60;;;;;;;;;;5087529;28;20307;-75
2021/05/07 03:53:57;;;;;;;12.60;5.20;;;;;;;;;;5073169;28;20292;-75
2021/05/07 03:56:24;;;;;;;10.30;5.33;;;;;;;;;;5072069;28;20281;-75
2021/05/07 03:58:51;;;;;;;19.10;5.70;;;;;;;;;;5072304;28;20238;-75
2021/05/07 04:01:18;;;;;;;25.67;5.53;;;;;;;;;;5084058;28;20716;-75
2021/05/07 04:03:44;;;;;;;21.20;5.30;;;;;;;;;;5085948;28;20600;-75
2021/05/07 04:06:16;;;;;;;15.80;4.67;;;;;;;;;;5068104;28;20282;-75
2021/05/07 04:08:46;;;;;;;7.80;4.30;;;;;;;;;;5051901;28;20289;-75
2021/05/07 04:11:20;;;;;;;9.20;4.03;;;;;;;;;;5051733;28;20232;-75
2021/05/07 04:13:48;;;;;;;9.73;4.43;;;;;;;;;;5066693;28;20248;-75
2021/05/07 04:16:14;;;;;;;24.43;4.77;;;;;;;;;;5064939;28;20298;-75
2021/05/07 04:18:41;;;;;;;11.17;4.17;;;;;;;;;;5076359;28;20348;-75
2021/05/07 04:21:08;;;;;;;21.00;4.60;;;;;;;;;;5071387;28;20285;-75
2021/05/07 04:23:34;;;;;;;9.53;3.60;;;;;;;;;;5074871;28;20201;-75
2021/05/07 04:26:01;;;;;;;5.33;3.00;;;;;;;;;;5062508;28;20309;-75
2021/05/07 04:28:28;;;;;;;13.97;3.50;;;;;;;;;;5067278;28;20289;-75
2021/05/07 04:30:56;;;;;;;6.43;3.57;;;;;;;;;;5070921;28;20380;-75
2021/05/07 04:33:22;;;;;;;15.13;3.83;;;;;;;;;;5071380;28;20205;-75
2021/05/07 04:35:49;;;;;;;18.47;4.00;;;;;;;;;;5071524;28;20518;-75
2021/05/07 04:38:16;;;;;;;15.70;4.23;;;;;;;;;;5062805;28;20202;-75
2021/05/07 04:40:43;;;;;;;9.93;3.97;;;;;;;;;;5066274;28;20217;-75
2021/05/07 04:43:09;;;;;;;4.90;3.23;;;;;;;;;;5056553;28;20209;-75
2021/05/07 04:45:36;;;;;;;6.27;3.13;;;;;;;;;;5053594;28;21850;-75
2021/05/07 04:48:11;;;;;;;25.00;4.57;;;;;;;;;;5071527;28;20238;-75
2021/05/07 04:50:37;;;;;;;18.30;4.20;;;;;;;;;;5067076;28;20258;-75
2021/05/07 04:53:04;;;;;;;6.90;4.00;;;;;;;;;;5058579;28;20316;-75
2021/05/07 04:55:31;;;;;;;7.50;3.73;;;;;;;;;;5061378;28;20292;-75
2021/05/07 04:57:58;;;;;;;46.63;4.57;;;;;;;;;;5066913;28;20289;-75
2021/05/07 05:00:24;;;;;;;61.43;5.83;;;;;;;;;;5070916;28;20324;-75
2021/05/07 05:02:51;;;;;;;10.63;4.13;;;;;;;;;;5074634;28;20295;-75
2021/05/07 05:05:19;;;;;;;18.93;4.07;;;;;;;;;;5064103;28;20657;-75
2021/05/07 05:07:49;;;;;;;6.70;3.90;;;;;;;;;;5050940;28;20293;-75
2021/05/07 05:10:16;;;;;;;6.20;3.77;;;;;;;;;;5052257;28;20229;-75
2021/05/07 05:12:43;;;;;;;14.27;4.27;;;;;;;;;;5060371;28;20237;-74
2021/05/07 05:15:10;;;;;;;10.90;3.97;;;;;;;;;;5064329;28;20284;-74
2021/05/07 05:17:37;;;;;;;26.20;4.50;;;;;;;;;;5064389;28;20296;-75
2021/05/07 05:20:04;;;;;;;14.97;4.40;;;;;;;;;;5062657;28;20233;-74
2021/05/07 05:22:32;;;;;;;26.40;4.23;;;;;;;;;;5068253;28;20205;-74
2021/05/07 05:25:04;;;;;;;15.03;4.73;;;;;;;;;;5085035;28;20615;-74
2021/05/07 05:27:30;;;;;;;12.63;4.23;;;;;;;;;;5068302;28;20712;-75
2021/05/07 05:29:57;;;;;;;15.07;4.30;;;;;;;;;;5068346;28;20677;-74
2021/05/07 05:32:24;;;;;;;36.23;5.80;;;;;;;;;;5068316;28;20234;-75
2021/05/07 05:34:51;;;;;;;12.47;4.00;;;;;;;;;;5068788;28;20593;-75
2021/05/07 05:37:17;;;;;;;18.10;3.70;;;;;;;;;;5081825;28;20194;-74
2021/05/07 05:39:45;;;;;;;16.40;3.70;;;;;;;;;;5068505;28;20649;-74
2021/05/07 05:42:12;;;;;;;10.67;4.10;;;;;;;;;;5051957;28;20291;-74
2021/05/07 05:44:39;;;;;;;9.67;4.50;;;;;;;;;;5056928;28;20294;-74
2021/05/07 05:47:05;;;;;;;12.37;4.63;;;;;;;;;;5065898;28;20262;-75
2021/05/07 05:49:32;;;;;;;16.10;5.00;;;;;;;;;;5086187;28;20210;-75
2021/05/07 05:52:00;;;;;;;14.87;4.10;;;;;;;;;;5061337;28;20884;-76
2021/05/07 05:54:27;;;;;;;11.33;4.90;;;;;;;;;;5073951;28;20246;-75
2021/05/07 05:56:54;;;;;;;7.70;4.70;;;;;;;;;;5071199;28;20248;-75
2021/05/07 05:59:21;;;;;;;10.77;4.00;;;;;;;;;;5075481;28;20317;-76
2021/05/07 06:01:48;;;;;;;23.23;8.40;;;;;;;;;;5067929;28;20200;-76
2021/05/07 06:04:14;;;;;;;45.50;8.27;;;;;;;;;;5066653;28;20356;-76
2021/05/07 06:06:41;;;;;;;51.63;8.03;;;;;;;;;;5072654;28;20199;-76
2021/05/07 06:09:07;;;;;;;15.60;6.93;;;;;;;;;;5073047;28;20299;-75
2021/05/07 06:11:34;;;;;;;14.63;6.50;;;;;;;;;;5073605;28;20366;-76
2021/05/07 06:14:02;;;;;;;20.10;6.90;;;;;;;;;;5070135;28;20316;-76
2021/05/07 06:16:28;;;;;;;22.63;6.33;;;;;;;;;;5079129;28;20205;-76
2021/05/07 06:18:55;;;;;;;40.30;6.93;;;;;;;;;;5075717;28;20281;-75
2021/05/07 06:21:22;;;;;;;12.00;6.77;;;;;;;;;;5072188;28;20198;-76
2021/05/07 06:23:49;;;;;;;11.40;6.40;;;;;;;;;;5071445;28;20722;-75
2021/05/07 06:26:15;;;;;;;15.13;5.90;;;;;;;;;;5063967;28;20297;-75
2021/05/07 06:28:42;;;;;;;8.83;5.87;;;;;;;;;;5057470;28;20727;-75
2021/05/07 06:31:09;;;;;;;8.90;6.70;;;;;;;;;;5067430;28;20229;-75
2021/05/07 06:33:36;;;;;;;10.17;7.90;;;;;;;;;;5064216;28;20291;-76
2021/05/07 06:36:03;;;;;;;8.87;6.97;;;;;;;;;;5066986;28;20199;-76
2021/05/07 06:38:29;;;;;;;8.20;6.07;;;;;;;;;;5061338;28;20198;-75
2021/05/07 06:40:56;;;;;;;6.37;5.20;;;;;;;;;;5063894;28;20301;-76
2021/05/07 06:43:23;;;;;;;8.03;5.73;;;;;;;;;;5064524;28;20237;-76
2021/05/07 06:45:49;;;;;;;6.90;6.17;;;;;;;;;;5061628;28;20644;-76
2021/05/07 06:48:17;;;;;;;6.73;6.03;;;;;;;;;;5061524;28;20214;-76
2021/05/07 06:50:44;;;;;;;8.97;6.57;;;;;;;;;;5061534;28;20305;-76
2021/05/07 06:53:10;;;;;;;8.07;6.73;;;;;;;;;;5061045;28;20202;-76
2021/05/07 06:55:37;;;;;;;8.00;6.40;;;;;;;;;;5068978;28;20234;-76
2021/05/07 06:58:04;;;;;;;8.70;6.00;;;;;;;;;;5069088;28;20197;-76
2021/05/07 07:00:32;;;;;;;6.75;5.93;;;;;;;;;;5063182;28;20694;-76
2021/05/07 07:02:58;;;;;;;8.63;6.05;;;;;;;;;;5067010;28;20208;-74
2021/05/07 07:05:26;;;;;;;6.97;6.28;;;;;;;;;;5073602;28;20302;-75
2021/05/07 07:07:54;;;;;;;8.18;5.90;;;;;;;;;;5060333;28;20214;-74
2021/05/07 07:10:21;;;;;;;6.82;5.22;;;;;;;;;;5064500;28;20230;-75
2021/05/07 07:12:47;;;;;;;5.72;5.13;;;;;;;;;;5060463;28;20225;-75
2021/05/07 07:15:15;;;;;;;7.80;5.25;;;;;;;;;;5071332;28;20233;-75
2021/05/07 07:17:41;;;;;;;5.55;4.57;;;;;;;;;;5063577;28;20201;-75
2021/05/07 07:20:09;;;;;;;10.43;5.47;;;;;;;;;;5061569;28;20753;-74
2021/05/07 07:22:36;;;;;;;5.20;4.70;;;;;;;;;;5066050;28;20282;-74
2021/05/07 07:25:03;;;;;;;5.30;4.80;;;;;;;;;;5067269;28;20231;-74
2021/05/07 07:27:30;;;;;;;6.47;4.47;;;;;;;;;;5068198;28;20627;-74
2021/05/07 07:29:56;;;;;;;4.80;4.00;;;;;;;;;;5065607;28;20306;-74
2021/05/07 07:32:23;;;;;;;4.97;4.47;;;;;;;;;;5058605;28;20303;-74
2021/05/07 07:34:52;;;;;;;4.85;4.25;;;;;;;;;;5064807;28;20199;-74
2021/05/07 07:37:19;;;;;;;4.40;4.00;;;;;;;;;;5070465;28;20202;-74
2021/05/07 07:39:47;;;;;;;6.80;4.20;;;;;;;;;;5064980;28;20226;-74
2021/05/07 07:42:13;;;;;;;5.43;4.32;;;;;;;;;;5068972;28;20728;-74
2021/05/07 07:44:40;;;;;;;5.55;4.22;;;;;;;;;;5059574;28;20200;-74
2021/05/07 07:47:07;;;;;;;7.30;4.32;;;;;;;;;;5059632;28;20238;-74
2021/05/07 07:49:34;;;;;;;6.20;4.38;;;;;;;;;;5064180;28;20203;-74
2021/05/07 07:52:00;;;;;;;5.93;4.05;;;;;;;;;;5061758;28;20218;-74
2021/05/07 07:54:27;;;;;;;5.30;3.67;;;;;;;;;;5065701;28;20288;-74
2021/05/07 07:56:55;;;;;;;5.00;3.88;;;;;;;;;;5066911;28;20234;-74
2021/05/07 07:59:22;;;;;;;4.97;3.65;;;;;;;;;;5068648;28;20258;-74
2021/05/07 08:01:48;;;;;;;5.57;3.72;;;;;;;;;;5062670;28;20279;-74
2021/05/07 08:04:17;;;;;;;8.40;3.55;;;;;;;;;;5059780;28;20284;-74
2021/05/07 08:06:44;;;;;;;6.05;3.38;;;;;;;;;;5059308;28;20206;-74
2021/05/07 08:09:11;;;;;;;5.03;3.63;;;;;;;;;;5062987;28;20202;-74
2021/05/07 08:11:38;;;;;;;6.65;3.58;;;;;;;;;;5063014;28;20250;-74
2021/05/07 08:14:06;;;;;;;5.63;3.70;;;;;;;;;;5062481;28;20624;-74
2021/05/07 08:16:33;;;;;;;4.22;3.42;;;;;;;;;;5063882;28;20241;-74
2021/05/07 08:18:59;;;;;;;6.93;3.70;;;;;;;;;;5060876;28;20278;-74
2021/05/07 08:21:27;;;;;;;5.45;3.38;;;;;;;;;;5061929;28;20287;-74
2021/05/07 08:23:54;;;;;;;3.70;3.30;;;;;;;;;;5066280;28;20317;-74
2021/05/07 08:26:22;;;;;;;6.32;3.50;;;;;;;;;;5066542;28;20223;-74
2021/05/07 08:28:49;;;;;;;5.57;3.10;;;;;;;;;;5067121;28;20195;-74
2021/05/07 08:31:16;;;;;;;6.70;3.70;;;;;;;;;;5063116;28;20284;-74
2021/05/07 08:33:43;;;;;;;6.35;3.30;;;;;;;;;;5064755;28;20195;-74
2021/05/07 08:36:10;;;;;;;5.28;3.35;;;;;;;;;;5060190;28;20283;-74
2021/05/07 08:38:36;;;;;;;4.53;3.95;;;;;;;;;;5063991;28;20207;-74
2021/05/07 08:41:03;;;;;;;8.32;3.78;;;;;;;;;;5061922;28;20278;-74
2021/05/07 08:43:30;;;;;;;9.50;4.70;;;;;;;;;;5059685;28;20203;-74
2021/05/07 08:45:57;;;;;;;8.15;5.70;;;;;;;;;;5062356;28;20289;-74
2021/05/07 08:48:26;;;;;;;7.90;6.90;;;;;;;;;;5063987;28;20199;-74
2021/05/07 08:50:53;;;;;;;8.25;7.30;;;;;;;;;;5065765;28;20242;-74
2021/05/07 08:53:20;;;;;;;9.05;7.00;;;;;;;;;;5062400;28;20290;-74
2021/05/07 08:55:48;;;;;;;9.55;6.60;;;;;;;;;;5066745;28;20746;-74
2021/05/07 08:58:15;;;;;;;6.93;6.22;;;;;;;;;;5065759;28;20278;-74
2021/05/07 09:00:42;;;;;;;7.97;5.82;;;;;;;;;;5064291;28;20219;-74
2021/05/07 09:03:10;;;;;;;7.20;5.10;;;;;;;;;;5062520;28;20199;-74
2021/05/07 09:05:38;;;;;;;6.53;4.82;;;;;;;;;;5063094;28;20287;-74
2021/05/07 09:08:05;;;;;;;3.78;3.28;;;;;;;;;;5060592;28;20294;-74
2021/05/07 09:10:33;;;;;;;5.00;3.47;;;;;;;;;;5070318;28;20215;-74
2021/05/07 09:12:59;;;;;;;3.75;3.28;;;;;;;;;;5067275;28;20191;-74
2021/05/07 09:15:38;;;;;;;5.53;3.92;;;;;;;;;;5062472;28;20282;-73
2021/05/07 09:18:04;;;;;;;5.07;4.13;;;;;;;;;;5070786;28;20610;-74
2021/05/07 09:20:36;;;;;;;4.93;3.85;;;;;;;;;;5070801;28;20238;-74
2021/05/07 09:23:05;;;;;;;4.55;3.53;;;;;;;;;;5071730;28;20199;-74
2021/05/07 09:25:32;;;;;;;3.70;3.20;;;;;;;;;;5065394;28;20246;-74
2021/05/07 09:28:06;;;;;;;5.53;3.33;;;;;;;;;;5069104;28;20396;-75
2021/05/07 09:30:32;;;;;;;4.35;3.45;;;;;;;;;;5069038;28;20221;-74
2021/05/07 09:32:59;;;;;;;4.18;3.33;;;;;;;;;;5070578;28;20227;-74
2021/05/07 09:35:26;;;;;;;3.75;3.15;;;;;;;;;;5064031;28;20275;-74
2021/05/07 09:37:57;;;;;;;3.42;3.13;;;;;;;;;;5068792;28;20199;-74
2021/05/07 09:40:25;;;;;;;4.05;3.65;;;;;;;;;;5070598;28;20230;-74
2021/05/07 09:43:02;;;;;;;4.13;3.72;;;;;;;;;;5067425;28;20238;-74
2021/05/07 09:45:30;;;;;;;4.72;3.90;;;;;;;;;;5068828;28;20225;-74
2021/05/07 09:47:56;;;;;;;3.92;3.53;;;16.80;99.90;;;;;;5062162;28;20278;-74
2021/05/07 09:50:32;;;;;;;6.95;3.75;;;17.10;99.90;;;;;;5063313;28;20235;-74
2021/05/07 09:53:09;;;;;;;4.13;3.28;;;19.40;99.90;;;;;;5069164;28;20202;-74
2021/05/07 09:55:36;;;;;;;4.85;3.80;;;19.90;99.90;;;;;;5066889;28;20552;-74
2021/05/07 09:58:03;;;;;;;4.18;3.60;;;21.10;99.90;;;;;;5067088;28;20345;-74
2021/05/07 10:00:30;;;;;;;5.45;3.40;;;19.10;99.90;;;;;;5067142;28;20227;-74
2021/05/07 10:02:56;;;;;;;5.03;3.35;;;18.10;99.90;;;;;;5063455;28;20265;-74
2021/05/07 10:05:24;;;;;;;3.65;3.03;;;20.20;99.90;;;;;;5068973;28;20281;-74
2021/05/07 10:07:50;;;;;;;4.28;3.30;;;19.40;99.90;;;;;;5065448;28;20191;-74
2021/05/07 10:10:17;;;;;;;5.47;3.30;;;17.00;99.90;;;;;;5071560;28;20282;-75
2021/05/07 10:12:47;;;;;;;5.30;3.45;;;17.30;99.90;;;;;;5063473;28;20251;-73
2021/05/07 10:15:13;;;;;;;4.30;3.40;;;19.80;99.90;;;;;;5063975;28;20199;-74
2021/05/07 10:17:50;;;;;;;4.13;3.70;;;19.50;99.90;;;;;;5064588;28;20241;-74
2021/05/07 10:20:38;;;;;;;6.07;3.70;;;20.50;98.10;;;;;;5058983;28;20200;-74
2021/05/07 10:23:15;;;;;;;3.63;3.05;;;19.40;99.90;;;;;;5068113;28;20309;-74
2021/05/07 10:25:53;;;;;;;3.60;3.30;;;19.60;96.00;;;;;;5067777;28;20230;-74
2021/05/07 10:28:21;;;;;;;5.00;3.72;;;18.50;99.10;;;;;;5065344;28;20281;-74
2021/05/07 10:30:47;;;;;;;5.88;3.80;;;17.70;98.90;;;;;;5062971;28;20231;-74
2021/05/07 10:33:19;;;;;;;5.35;3.50;;;19.00;99.90;;;;;;5061749;28;20247;-74
2021/05/07 10:35:48;;;;;;;4.55;3.60;;;18.40;99.90;;;;;;5058616;28;20286;-74
2021/05/07 10:38:16;;;;;;;4.13;3.55;;;17.70;99.90;;;;;;5053202;28;20305;-74
2021/05/07 10:40:44;;;;;;;3.25;2.95;;;17.20;99.90;;;;;;5066831;28;20208;-74
2021/05/07 10:43:11;;;;;;;4.28;3.30;;;18.90;99.90;;;;;;5063158;28;20227;-74
2021/05/07 10:45:59;;;;;;;7.38;3.30;;;19.50;96.50;;;;;;5061110;28;20282;-74
2021/05/07 10:48:26;;;;;;;3.08;2.78;;;20.40;99.90;;;;;;5059678;28;20230;-75
2021/05/07 10:50:55;;;;;;;4.97;3.28;;;21.10;98.50;;;;;;5067649;28;20284;-74
2021/05/07 10:53:36;;;;;;;4.82;3.30;;;19.90;99.90;;;;;;5061390;28;20670;-75
2021/05/07 10:56:16;;;;;;;3.50;3.17;;;19.70;99.90;;;;;;5066211;28;20674;-74
2021/05/07 10:58:42;;;;;;;4.10;2.60;;;21.70;97.70;;;;;;5062781;28;20263;-74
2021/05/07 11:01:24;;;;;;;3.50;2.15;;;22.80;93.20;;;;;;5056677;28;20192;-75
2021/05/07 11:04:04;;;;;;;3.15;1.80;;;22.10;88.70;;;;;;5064519;28;20195;-74
2021/05/07 11:06:33;;;;;;;3.40;2.15;;;22.70;93.30;;;;;;5055902;28;20294;-75
2021/05/07 11:08:59;;;;;;;2.70;2.30;;;23.40;94.30;;;;;;5053692;28;20207;-75
2021/05/07 11:11:34;;;;;;;3.78;2.72;;;24.10;90.70;;;;;;5072864;28;20648;-75
2021/05/07 11:14:00;;;;;;;3.63;2.33;;;23.20;87.60;;;;;;5070685;28;20199;-74
2021/05/07 11:16:38;;;;;;;3.80;2.53;;;22.80;92.50;;;;;;5064643;28;20293;-74
2021/05/07 11:19:04;;;;;;;4.07;2.70;;;20.10;89.00;;;;;;5055970;28;20679;-74
2021/05/07 11:21:31;;;;;;;4.97;2.90;;;16.70;97.00;;;;;;5058759;28;20208;-74
2021/05/07 11:23:57;;;;;;;4.63;2.95;;;14.70;99.90;;;;;;5056392;28;20226;-74
2021/05/07 11:26:35;;;;;;;5.18;3.20;;;15.60;99.90;;;;;;5070858;28;20254;-74
2021/05/07 11:29:02;;;;;;;4.35;3.28;;;17.40;99.90;;;;;;5057443;28;20226;-74
2021/05/07 11:31:29;;;;;;;3.08;2.65;;;16.60;99.90;;;;;;5071452;28;20246;-74
2021/05/07 11:33:56;;;;;;;3.55;2.72;;;17.40;99.90;;;;;;5064299;28;20238;-74
2021/05/07 11:36:22;;;;;;;5.55;3.05;;;19.80;99.90;;;;;;5074770;28;20195;-74
2021/05/07 11:38:49;;;;;;;3.78;2.95;;;19.00;98.90;;;;;;5056643;28;20208;-74
2021/05/07 11:41:21;;;;;;;2.38;2.17;;;20.30;99.90;;;;;;5058038;28;20227;-74
2021/05/07 11:43:49;;;;;;;2.92;2.45;;;22.10;95.30;;;;;;5069925;28;20203;-74
2021/05/07 11:46:16;;;;;;;3.53;2.60;;;23.70;91.60;;;;;;5067009;28;20292;-73
2021/05/07 11:48:46;;;;;;;4.78;2.90;;;21.20;89.10;;;;;;5068972;28;21021;-73
2021/05/07 11:51:14;;;;;;;2.97;2.55;;;18.90;91.40;;;;;;5071578;28;20220;-73
2021/05/07 11:53:41;;;;;;;3.33;2.70;;;20.30;98.20;;;;;;5070164;28;20302;-73
2021/05/07 11:56:21;;;;;;;3.20;1.98;;;22.00;94.90;;;;;;5066727;28;20638;-73
2021/05/07 11:58:49;;;;;;;2.60;2.40;;;;;;;;;;5067741;28;20234;-74
2021/05/07 12:01:17;;;;;;;3.20;2.45;;;;;;;;;;5069076;28;20207;-74
2021/05/07 12:03:44;;;;;;;3.55;2.30;;;;;;;;;;5070467;28;20211;-74
2021/05/07 12:06:15;;;;;;;3.22;2.17;;;;;;;;;;5068305;28;20221;-73
2021/05/07 12:08:42;;;;;;;4.70;2.80;;;;;;;;;;5066348;28;20282;-76
2021/05/07 12:11:09;;;;;;;5.10;2.30;;;;;;;;;;5067448;28;20246;-74
2021/05/07 12:13:36;;;;;;;3.28;2.22;;;;;;;;;;5069263;28;21627;-75
2021/05/07 12:16:03;;;;;;;3.97;2.33;;;;;;;;;;5068919;28;20658;-76
2021/05/07 12:18:32;;;;;;;3.97;2.38;;;;;;;;;;5068072;28;20206;-77
2021/05/07 12:20:59;;;;;;;4.18;2.00;;;;;;;;;;5065709;28;20621;-78
2021/05/07 12:23:27;;;;;;;3.80;2.40;;;;;;;;;;5067569;28;20231;-77
2021/05/07 12:25:53;;;;;;;3.30;2.03;;;;;;;;;;5064262;28;20333;-77
2021/05/07 12:28:21;;;;;;;2.90;2.10;;;;;;;;;;5060391;28;20306;-75
2021/05/07 12:30:49;;;;;;;2.92;2.22;;;;;;;;;;5060484;28;20207;-77
2021/05/07 12:33:19;;;;;;;4.00;2.53;;;;;;;;;;5067802;28;20219;-78
2021/05/07 12:35:46;;;;;;;3.20;2.28;;;;;;;;;;5061038;28;20278;-77
2021/05/07 12:38:15;;;;;;;2.80;2.50;;;;;;;;;;5067621;28;20251;-77
2021/05/07 12:40:42;;;;;;;5.90;2.42;;;;;;;;;;5060546;28;20203;-77
2021/05/07 12:43:09;;;;;;;2.95;1.75;;;;;;;;;;5069749;28;20223;-77
2021/05/07 12:45:35;;;;;;;5.05;2.30;;;;;;;;;;5067092;28;20941;-81
2021/05/07 12:48:03;;;;;;;3.42;2.17;;;;;;;;;;5063803;28;20729;-77
2021/05/07 12:50:29;;;;;;;3.25;2.25;;;;;;;;;;5068544;28;20222;-77
2021/05/07 12:52:56;;;;;;;2.67;2.10;;;;;;;;;;5060288;28;20314;-77
2021/05/07 12:55:23;;;;;;;3.13;2.15;;;;;;;;;;5069410;28;20288;-77
2021/05/07 12:57:51;;;;;;;4.13;2.42;;;;;;;;;;5065658;28;20282;-77
2021/05/07 13:00:18;;;;;;;3.17;2.55;;;;;;;;;;5068544;28;20848;-77
2021/05/07 13:02:45;;;;;;;3.23;2.10;;;;;;;;;;5070312;28;20198;-77
2021/05/07 13:05:12;;;;;;;4.53;2.13;;;;;;;;;;5070542;28;20203;-77
2021/05/07 13:07:39;;;;;;;2.30;2.00;;;;;;;;;;5066242;28;20211;-77
2021/05/07 13:10:06;;;;;;;3.53;2.00;;;;;;;;;;5066957;28;20191;-77
2021/05/07 13:12:33;;;;;;;4.82;2.30;;;;;;;;;;5068176;28;20301;-77
2021/05/07 13:15:03;;;;;;;4.72;2.30;;;;;;;;;;5062765;28;20218;-76
2021/05/07 13:17:32;;;;;;;4.15;2.13;;;;;;;;;;5064505;28;20200;-76
2021/05/07 13:19:59;;;;;;;3.05;2.13;;;;;;;;;;5059751;28;20234;-76
2021/05/07 13:22:26;;;;;;;3.75;2.10;;;;;;;;;;5069075;28;20248;-75
2021/05/07 13:24:53;;;;;;;2.40;2.00;;;;;;;;;;5066086;28;20298;-76
2021/05/07 13:27:20;;;;;;;3.75;2.20;;;;;;;;;;5060625;28;20220;-75
2021/05/07 13:29:46;;;;;;;3.33;2.03;;;;;;;;;;5062804;28;20203;-75
2021/05/07 13:32:17;;;;;;;4.10;2.30;;;;;;;;;;5068985;28;20301;-75
2021/05/07 13:34:46;;;;;;;2.65;2.20;;;;;;;;;;5065054;28;20223;-74
2021/05/07 13:37:13;;;;;;;4.00;2.17;;;;;;;;;;5068976;28;20210;-74
2021/05/07 13:39:40;;;;;;;2.97;2.00;;;;;;;;;;5069429;28;20744;-75
2021/05/07 13:42:06;;;;;;;3.03;2.15;;;;;;;;;;5066948;28;20290;-75
2021/05/07 13:44:33;;;;;;;3.13;2.13;;;;;;;;;;5069376;28;20281;-75
2021/05/07 13:47:00;;;;;;;3.97;2.08;;;;;;;;;;5065884;28;20206;-75
2021/05/07 13:49:27;;;;;;;5.95;2.05;;;;;;;;;;5068968;28;20214;-75
2021/05/07 13:51:55;;;;;;;3.28;2.00;;;;;;;;;;5064554;28;20211;-75
2021/05/07 13:54:22;;;;;;;2.35;1.90;;;;;;;;;;5068526;28;20607;-75
2021/05/07 13:56:49;;;;;;;3.28;1.90;;;;;;;;;;5068888;28;20298;-75
2021/05/07 13:59:17;;;;;;;3.10;2.13;;;;;;;;;;5065152;28;20235;-75
2021/05/07 14:02:01;;;;;;;3.92;2.13;;;;;;;;;;5063356;28;20208;-75
2021/05/07 14:08:13;;;;;;;2.95;1.90;;;;;;;;;;5027990;28;20678;-72
2021/05/07 14:10:49;;;;;;;3.45;1.70;;;;;;;;;;4932996;29;20245;-75
2021/05/07 14:13:17;;;;;;;2.63;1.83;;;;;;;;;;4929551;29;20294;-75
2021/05/07 14:15:44;;;;;;;2.30;1.80;;;;;;;;;;4935488;29;20207;-75
2021/05/07 14:18:10;;;;;;;3.22;1.95;;;;;;;;;;4934857;28;20676;-75
2021/05/07 14:20:37;;;;;;;2.75;1.95;;;;;;;;;;4918165;29;20259;-75
2021/05/07 14:23:08;;;;;;;3.28;1.80;;;;;;;;;;4935149;29;20275;-75
2021/05/07 14:25:36;;;;;;;3.05;2.03;;;;;;;;;;4933750;29;20210;-75
2021/05/07 14:28:07;;;;;;;4.03;1.98;;;;;;;;;;4932506;29;20223;-75